createdAt,value
2023-04-19T00:01:09.829Z,99.44
2023-04-19T00:06:02.988Z,99.65
2023-04-19T00:10:57.496Z,100.00
2023-04-19T00:15:50.626Z,100.00
2023-04-19T00:20:44.416Z,100.00
2023-04-19T00:25:37.533Z,100.00
2023-04-19T00:30:32.193Z,100.00
2023-04-19T00:35:25.286Z,100.00
2023-04-19T00:40:18.789Z,100.00
2023-04-19T00:45:12.928Z,100.00
2023-04-19T00:50:09.521Z,100.00
2023-04-19T00:55:03.127Z,100.00
2023-04-19T00:59:57.538Z,100.00
2023-04-19T01:04:50.751Z,100.00
2023-04-19T01:09:47.148Z,100.00
2023-04-19T01:14:41.052Z,100.00
2023-04-19T01:19:34.984Z,100.00
2023-04-19T01:24:29.652Z,100.00
2023-04-19T01:29:23.238Z,100.00
2023-04-19T01:34:16.666Z,100.00
2023-04-19T01:39:11.024Z,100.00
2023-04-19T01:44:07.751Z,100.00
2023-04-19T01:49:00.931Z,100.00
2023-04-19T01:53:54.837Z,100.00
2023-04-19T01:58:49.455Z,100.00
2023-04-19T02:03:44.161Z,100.00
2023-04-19T02:08:37.544Z,100.00
2023-04-19T02:13:30.909Z,100.00
2023-04-19T02:18:24.291Z,100.00
2023-04-19T02:23:19.049Z,100.00
2023-04-19T02:28:12.312Z,100.00
2023-04-19T02:33:05.664Z,100.00
2023-04-19T02:38:01.725Z,100.00
2023-04-19T02:42:56.250Z,100.00
2023-04-19T02:47:49.517Z,100.00
2023-04-19T02:52:42.651Z,100.00
2023-04-19T02:57:36.017Z,100.00
2023-04-19T03:02:31.947Z,100.00
2023-04-19T03:07:25.190Z,100.00
2023-04-19T03:12:18.470Z,100.00
2023-04-19T03:17:16.536Z,100.00
2023-04-19T03:22:12.699Z,100.00
2023-04-19T03:27:06.835Z,100.00
2023-04-19T03:32:00.689Z,100.00
2023-04-19T03:36:54.902Z,100.00
2023-04-19T03:41:49.664Z,100.00
2023-04-19T03:46:50.133Z,100.00
2023-04-19T03:51:48.280Z,100.00
2023-04-19T03:56:41.535Z,100.00
2023-04-19T04:01:41.832Z,100.00
2023-04-19T04:06:35.144Z,100.00
2023-04-19T04:11:28.424Z,100.00
2023-04-19T04:16:21.819Z,100.00
2023-04-19T04:21:18.357Z,100.00
2023-04-19T04:26:14.062Z,100.00
2023-04-19T04:31:26.412Z,100.00
2023-04-19T04:36:21.038Z,100.00
2023-04-19T04:41:16.661Z,100.00
2023-04-19T04:46:09.791Z,100.00
2023-04-19T04:51:07.365Z,100.00
2023-04-19T04:56:03.053Z,100.00
2023-04-19T05:00:57.493Z,100.00
2023-04-19T05:05:52.230Z,100.00
2023-04-19T05:10:45.468Z,100.00
2023-04-19T05:15:41.299Z,100.00
2023-04-19T05:20:35.547Z,100.00
2023-04-19T05:25:38.327Z,100.00
2023-04-19T05:30:38.202Z,100.00
2023-04-19T05:35:33.126Z,100.00
2023-04-19T05:40:27.299Z,100.00
2023-04-19T05:45:20.427Z,100.00
2023-04-19T05:50:15.087Z,100.00
2023-04-19T05:55:15.194Z,100.00
2023-04-19T06:00:12.288Z,100.00
2023-04-19T06:05:24.312Z,100.00
2023-04-19T06:10:19.249Z,100.00
2023-04-19T06:15:13.051Z,100.00
2023-04-19T06:20:08.396Z,100.00
2023-04-19T06:25:02.554Z,99.33
2023-04-19T06:29:57.120Z,97.75
2023-04-19T06:34:50.234Z,97.40
2023-04-19T06:39:43.304Z,97.67
2023-04-19T06:44:36.604Z,98.16
2023-04-19T06:49:31.359Z,98.09
2023-04-19T06:54:27.116Z,96.39
2023-04-19T06:59:21.676Z,95.57
2023-04-19T07:04:15.720Z,94.57
2023-04-19T07:09:10.667Z,94.20
2023-04-19T07:14:03.901Z,91.70
2023-04-19T07:18:57.959Z,89.88
2023-04-19T07:23:51.184Z,92.09
2023-04-19T07:28:45.957Z,90.98
2023-04-19T07:33:39.062Z,88.65
2023-04-19T07:38:32.176Z,89.18
2023-04-19T07:43:25.558Z,87.92
2023-04-19T07:48:20.121Z,86.53
2023-04-19T07:53:13.289Z,86.60
2023-04-19T07:58:06.452Z,88.89
2023-04-19T08:02:59.696Z,87.06
2023-04-19T08:07:54.769Z,91.23
2023-04-19T08:13:01.606Z,86.68
2023-04-19T08:17:58.412Z,85.10
2023-04-19T08:22:54.236Z,84.96
2023-04-19T08:27:47.288Z,86.04
2023-04-19T08:32:40.526Z,82.76
2023-04-19T08:37:33.749Z,84.69
2023-04-19T08:42:36.365Z,83.46
2023-04-19T08:47:34.155Z,85.38
2023-04-19T08:52:29.128Z,80.25
2023-04-19T08:57:22.375Z,78.12
2023-04-19T09:02:17.177Z,72.91
2023-04-19T09:07:10.450Z,73.36
2023-04-19T09:12:04.062Z,64.51
2023-04-19T09:17:17.181Z,68.52
2023-04-19T09:22:15.691Z,62.52
2023-04-19T09:27:10.672Z,65.70
2023-04-19T09:32:03.982Z,63.98
2023-04-19T09:37:27.920Z,68.39
2023-04-19T09:47:44.901Z,63.42
2023-04-19T09:52:41.724Z,65.62
2023-04-19T09:57:35.699Z,65.15
2023-04-19T10:02:32.893Z,65.28
2023-04-19T10:07:30.985Z,66.35
2023-04-19T10:12:58.547Z,66.84
2023-04-19T10:17:45.632Z,70.80
2023-04-19T10:22:39.429Z,69.51
2023-04-19T10:27:36.173Z,67.33
2023-04-19T10:32:30.175Z,69.21
2023-04-19T10:37:25.251Z,67.32
2023-04-19T10:42:18.487Z,68.22
2023-04-19T10:47:14.614Z,68.02
2023-04-19T10:52:27.997Z,66.69
2023-04-19T10:57:25.339Z,67.82
2023-04-19T11:02:32.860Z,68.18
2023-04-19T11:07:26.527Z,69.97
2023-04-19T11:12:20.786Z,72.42
2023-04-19T11:17:18.462Z,73.09
2023-04-19T11:22:13.020Z,76.13
2023-04-19T11:27:10.604Z,73.43
2023-04-19T11:32:06.685Z,73.56
2023-04-19T11:37:00.126Z,68.58
2023-04-19T11:41:54.738Z,70.27
2023-04-19T11:47:01.837Z,64.15
2023-04-19T11:51:58.090Z,65.54
2023-04-19T11:57:08.612Z,63.75
2023-04-19T12:02:09.437Z,65.13
2023-04-19T12:07:04.205Z,61.61
2023-04-19T12:11:58.467Z,62.05
2023-04-19T12:17:12.170Z,54.16
2023-04-19T12:22:13.332Z,50.12
2023-04-19T12:27:06.482Z,48.75
2023-04-19T12:32:05.796Z,43.43
2023-04-19T12:37:00.957Z,42.17
2023-04-19T12:41:54.157Z,39.67
2023-04-19T12:46:47.486Z,40.57
2023-04-19T12:51:42.589Z,38.29
2023-04-19T12:56:37.247Z,37.58
2023-04-19T13:01:30.493Z,36.99
2023-04-19T13:06:23.905Z,35.22
2023-04-19T13:11:26.911Z,37.51
2023-04-19T13:16:22.552Z,37.86
2023-04-19T13:21:15.956Z,36.52
2023-04-19T13:26:09.157Z,36.64
2023-04-19T13:31:02.735Z,35.79
2023-04-19T13:35:57.220Z,34.38
2023-04-19T13:40:50.809Z,33.41
2023-04-19T13:45:46.321Z,35.30
2023-04-19T13:50:39.476Z,32.56
2023-04-19T13:55:34.058Z,33.31
2023-04-19T14:00:27.501Z,33.74
2023-04-19T14:05:31.269Z,33.30
2023-04-19T14:10:38.800Z,33.40
2023-04-19T14:15:34.730Z,33.60
2023-04-19T14:20:28.260Z,36.33
2023-04-19T14:25:21.481Z,34.13
2023-04-19T14:30:16.344Z,35.91
2023-04-19T14:35:14.208Z,37.80
2023-04-19T14:40:10.704Z,40.43
2023-04-19T14:45:03.999Z,38.00
2023-04-19T14:50:00.907Z,36.86
2023-04-19T14:54:54.074Z,38.92
2023-04-19T14:59:47.212Z,40.99
2023-04-19T15:04:41.283Z,43.34
2023-04-19T15:09:36.603Z,44.39
2023-04-19T15:14:29.692Z,44.40
2023-04-19T15:19:22.781Z,48.28
2023-04-19T15:24:15.914Z,49.72
2023-04-19T15:29:10.401Z,51.37
2023-04-19T15:34:04.155Z,53.30
2023-04-19T15:38:58.365Z,53.75
2023-04-19T15:44:01.625Z,54.38
2023-04-19T15:48:56.268Z,57.66
2023-04-19T15:53:51.284Z,56.58
2023-04-19T15:58:44.457Z,56.23
2023-04-19T16:03:40.522Z,56.37
2023-04-19T16:08:35.178Z,57.16
2023-04-19T16:13:29.576Z,58.04
2023-04-19T16:18:25.370Z,57.46
2023-04-19T16:23:18.551Z,58.74
2023-04-19T16:28:13.086Z,59.90
2023-04-19T16:33:09.553Z,61.03
2023-04-19T16:38:04.505Z,60.27
2023-04-19T16:42:58.320Z,60.82
2023-04-19T16:47:53.834Z,62.14
2023-04-19T16:52:47.362Z,61.40
2023-04-19T16:57:40.737Z,61.32
2023-04-19T17:02:34.711Z,62.04
2023-04-19T17:07:34.459Z,63.18
2023-04-19T17:12:27.733Z,63.39
2023-04-19T17:17:21.377Z,63.81
2023-04-19T17:22:15.793Z,64.35
2023-04-19T17:27:10.577Z,65.60
2023-04-19T17:32:07.248Z,66.10
2023-04-19T17:37:01.535Z,67.73
2023-04-19T17:41:55.345Z,68.44
2023-04-19T17:46:51.809Z,68.22
2023-04-19T17:51:45.065Z,68.33
2023-04-19T17:56:38.638Z,67.12
2023-04-19T18:01:32.155Z,66.40
2023-04-19T18:06:28.415Z,65.84
2023-04-19T18:11:22.945Z,68.59
2023-04-19T18:16:17.389Z,72.22
2023-04-19T18:21:10.701Z,72.92
2023-04-19T18:26:05.467Z,73.75
2023-04-19T18:31:01.101Z,77.19
2023-04-19T18:35:54.465Z,79.94
2023-04-19T18:40:48.339Z,81.46
2023-04-19T18:45:43.489Z,84.38
2023-04-19T18:50:43.653Z,85.98
2023-04-19T18:55:36.717Z,87.77
2023-04-19T19:00:33.098Z,90.50
2023-04-19T19:05:29.234Z,91.75
2023-04-19T19:10:26.673Z,92.64
2023-04-19T19:15:37.389Z,93.56
2023-04-19T19:20:32.146Z,93.91
2023-04-19T19:25:28.558Z,94.10
2023-04-19T19:30:23.357Z,94.33
2023-04-19T19:35:16.545Z,94.30
2023-04-19T19:40:14.992Z,94.51
2023-04-19T19:45:12.546Z,94.49
2023-04-19T19:55:05.567Z,94.26
2023-04-19T20:00:32.050Z,94.75
2023-04-19T20:05:25.301Z,95.30
2023-04-19T20:10:21.780Z,96.15
2023-04-19T20:15:16.463Z,96.80
2023-04-19T20:20:13.251Z,97.55
2023-04-19T20:25:07.559Z,97.92
2023-04-19T20:30:02.395Z,98.16
2023-04-19T20:34:57.288Z,98.51
2023-04-19T20:39:50.536Z,99.29
2023-04-19T20:44:43.689Z,100.00
2023-04-19T20:49:37.000Z,100.00
2023-04-19T20:54:31.755Z,100.00
2023-04-19T20:59:25.000Z,100.00
2023-04-19T21:04:18.199Z,100.00
2023-04-19T21:09:11.635Z,100.00
2023-04-19T21:14:06.287Z,100.00
2023-04-19T21:19:02.521Z,100.00
2023-04-19T21:24:04.382Z,100.00
2023-04-19T21:28:57.664Z,100.00
2023-04-19T21:33:52.233Z,100.00
2023-04-19T21:38:45.493Z,100.00
2023-04-19T21:43:40.933Z,100.00
2023-04-19T21:48:36.991Z,100.00
2023-04-19T21:53:36.434Z,100.00
2023-04-19T21:58:29.881Z,100.00
2023-04-19T22:03:26.218Z,100.00
2023-04-19T22:08:19.609Z,100.00
2023-04-19T22:13:14.306Z,100.00
2023-04-19T22:18:08.272Z,100.00
2023-04-19T22:23:09.626Z,100.00
2023-04-19T22:28:02.956Z,100.00
2023-04-19T22:32:57.582Z,100.00
2023-04-19T22:37:50.838Z,100.00
2023-04-19T22:42:44.046Z,100.00
2023-04-19T22:47:37.509Z,100.00
2023-04-19T22:52:32.296Z,100.00
2023-04-19T22:57:27.797Z,100.00
2023-04-19T23:02:20.974Z,100.00
2023-04-19T23:07:14.178Z,100.00
2023-04-19T23:12:09.211Z,100.00
2023-04-19T23:17:03.029Z,100.00
2023-04-19T23:21:56.325Z,100.00
2023-04-19T23:26:49.513Z,100.00
2023-04-19T23:31:44.147Z,100.00
2023-04-19T23:36:37.394Z,100.00
2023-04-19T23:41:30.568Z,100.00
2023-04-19T23:46:24.188Z,100.00
2023-04-19T23:51:18.769Z,100.00
2023-04-19T23:56:11.964Z,100.00
